sensor_id;sensor_type;location;lat;lon;timestamp;P1;durP1;ratioP1;P2;durP2;ratioP2
51228;SDS011;37304;52.216;6.874;2023-06-22T00:01:37;11.23;;;5.93;;
51228;SDS011;37304;52.216;6.874;2023-06-22T00:06:38;13.30;;;6.13;;
51228;SDS011;37304;52.216;6.874;2023-06-22T00:11:38;11.13;;;5.60;;
51228;SDS011;37304;52.216;6.874;2023-06-22T00:16:38;10.43;;;5.97;;
51228;SDS011;37304;52.216;6.874;2023-06-22T00:21:39;9.05;;;6.70;;
51228;SDS011;37304;52.216;6.874;2023-06-22T00:26:39;11.20;;;6.43;;
51228;SDS011;37304;52.216;6.874;2023-06-22T00:31:39;9.87;;;6.77;;
51228;SDS011;37304;52.216;6.874;2023-06-22T00:36:40;12.03;;;6.40;;
51228;SDS011;37304;52.216;6.874;2023-06-22T00:41:40;9.95;;;6.53;;
51228;SDS011;37304;52.216;6.874;2023-06-22T00:46:41;11.07;;;6.83;;
51228;SDS011;37304;52.216;6.874;2023-06-22T00:51:41;11.17;;;6.50;;
51228;SDS011;37304;52.216;6.874;2023-06-22T00:56:45;12.25;;;7.50;;
51228;SDS011;37304;52.216;6.874;2023-06-22T01:01:46;12.85;;;7.68;;
51228;SDS011;37304;52.216;6.874;2023-06-22T01:06:54;12.23;;;7.40;;
51228;SDS011;37304;52.216;6.874;2023-06-22T01:12:05;12.73;;;7.93;;
51228;SDS011;37304;52.216;6.874;2023-06-22T01:17:07;14.52;;;8.32;;
51228;SDS011;37304;52.216;6.874;2023-06-22T01:22:09;15.02;;;8.68;;
51228;SDS011;37304;52.216;6.874;2023-06-22T01:32:45;14.15;;;9.18;;
51228;SDS011;37304;52.216;6.874;2023-06-22T01:37:47;15.07;;;9.55;;
51228;SDS011;37304;52.216;6.874;2023-06-22T01:42:48;14.45;;;9.38;;
51228;SDS011;37304;52.216;6.874;2023-06-22T01:47:50;19.45;;;9.85;;
51228;SDS011;37304;52.216;6.874;2023-06-22T01:52:51;16.35;;;10.05;;
51228;SDS011;37304;52.216;6.874;2023-06-22T01:57:51;14.03;;;9.20;;
51228;SDS011;37304;52.216;6.874;2023-06-22T02:02:53;17.03;;;9.40;;
51228;SDS011;37304;52.216;6.874;2023-06-22T02:08:05;15.65;;;9.40;;
51228;SDS011;37304;52.216;6.874;2023-06-22T02:13:09;15.57;;;9.80;;
51228;SDS011;37304;52.216;6.874;2023-06-22T02:18:11;17.63;;;9.95;;
51228;SDS011;37304;52.216;6.874;2023-06-22T02:23:12;16.40;;;10.35;;
51228;SDS011;37304;52.216;6.874;2023-06-22T02:28:12;20.43;;;10.93;;
51228;SDS011;37304;52.216;6.874;2023-06-22T02:33:13;17.37;;;10.57;;
51228;SDS011;37304;52.216;6.874;2023-06-22T02:38:13;19.50;;;10.37;;
51228;SDS011;37304;52.216;6.874;2023-06-22T02:43:14;17.75;;;11.15;;
51228;SDS011;37304;52.216;6.874;2023-06-22T02:48:14;19.23;;;11.43;;
51228;SDS011;37304;52.216;6.874;2023-06-22T02:53:15;16.57;;;10.67;;
51228;SDS011;37304;52.216;6.874;2023-06-22T02:58:15;20.97;;;10.33;;
51228;SDS011;37304;52.216;6.874;2023-06-22T03:03:16;18.95;;;10.93;;
51228;SDS011;37304;52.216;6.874;2023-06-22T03:08:16;18.07;;;11.00;;
51228;SDS011;37304;52.216;6.874;2023-06-22T03:13:17;18.90;;;11.90;;
51228;SDS011;37304;52.216;6.874;2023-06-22T03:18:17;20.03;;;11.60;;
51228;SDS011;37304;52.216;6.874;2023-06-22T03:23:17;20.47;;;11.80;;
51228;SDS011;37304;52.216;6.874;2023-06-22T03:28:18;19.50;;;11.30;;
51228;SDS011;37304;52.216;6.874;2023-06-22T03:33:18;17.57;;;11.13;;
51228;SDS011;37304;52.216;6.874;2023-06-22T03:38:19;20.47;;;11.10;;
51228;SDS011;37304;52.216;6.874;2023-06-22T03:43:19;19.47;;;11.23;;
51228;SDS011;37304;52.216;6.874;2023-06-22T03:48:19;18.50;;;11.20;;
51228;SDS011;37304;52.216;6.874;2023-06-22T03:53:20;18.37;;;11.13;;
51228;SDS011;37304;52.216;6.874;2023-06-22T03:58:20;16.53;;;9.73;;
51228;SDS011;37304;52.216;6.874;2023-06-22T04:03:21;15.65;;;10.13;;
51228;SDS011;37304;52.216;6.874;2023-06-22T04:08:21;19.90;;;10.50;;
51228;SDS011;37304;52.216;6.874;2023-06-22T04:13:22;18.43;;;10.27;;
51228;SDS011;37304;52.216;6.874;2023-06-22T04:18:22;16.17;;;9.73;;
51228;SDS011;37304;52.216;6.874;2023-06-22T04:23:23;14.57;;;9.93;;
51228;SDS011;37304;52.216;6.874;2023-06-22T04:28:23;16.10;;;10.20;;
51228;SDS011;37304;52.216;6.874;2023-06-22T04:33:23;13.67;;;9.73;;
51228;SDS011;37304;52.216;6.874;2023-06-22T04:38:24;16.57;;;10.00;;
51228;SDS011;37304;52.216;6.874;2023-06-22T04:43:24;17.27;;;11.23;;
51228;SDS011;37304;52.216;6.874;2023-06-22T04:48:25;17.97;;;10.73;;
51228;SDS011;37304;52.216;6.874;2023-06-22T04:53:25;14.20;;;9.67;;
51228;SDS011;37304;52.216;6.874;2023-06-22T04:58:29;17.23;;;10.18;;
51228;SDS011;37304;52.216;6.874;2023-06-22T05:03:32;16.55;;;9.35;;
51228;SDS011;37304;52.216;6.874;2023-06-22T05:08:32;15.80;;;10.10;;
51228;SDS011;37304;52.216;6.874;2023-06-22T05:13:33;15.87;;;10.00;;
51228;SDS011;37304;52.216;6.874;2023-06-22T05:18:34;16.40;;;9.50;;
51228;SDS011;37304;52.216;6.874;2023-06-22T05:23:36;18.42;;;10.98;;
51228;SDS011;37304;52.216;6.874;2023-06-22T05:28:36;18.20;;;9.27;;
51228;SDS011;37304;52.216;6.874;2023-06-22T05:33:37;15.73;;;9.97;;
51228;SDS011;37304;52.216;6.874;2023-06-22T05:38:37;15.07;;;8.53;;
51228;SDS011;37304;52.216;6.874;2023-06-22T05:43:37;15.63;;;9.43;;
51228;SDS011;37304;52.216;6.874;2023-06-22T05:48:38;14.43;;;9.33;;
51228;SDS011;37304;52.216;6.874;2023-06-22T05:53:38;13.10;;;8.30;;
51228;SDS011;37304;52.216;6.874;2023-06-22T05:58:38;15.73;;;8.67;;
51228;SDS011;37304;52.216;6.874;2023-06-22T06:03:39;16.50;;;8.57;;
51228;SDS011;37304;52.216;6.874;2023-06-22T06:08:41;14.30;;;8.90;;
51228;SDS011;37304;52.216;6.874;2023-06-22T06:13:41;15.13;;;8.80;;
51228;SDS011;37304;52.216;6.874;2023-06-22T06:18:42;16.83;;;8.83;;
51228;SDS011;37304;52.216;6.874;2023-06-22T06:23:42;14.90;;;8.63;;
51228;SDS011;37304;52.216;6.874;2023-06-22T06:28:43;14.30;;;8.40;;
51228;SDS011;37304;52.216;6.874;2023-06-22T06:33:43;13.25;;;8.73;;
51228;SDS011;37304;52.216;6.874;2023-06-22T06:38:44;10.73;;;7.93;;
51228;SDS011;37304;52.216;6.874;2023-06-22T06:43:44;13.73;;;8.37;;
51228;SDS011;37304;52.216;6.874;2023-06-22T06:48:45;15.47;;;8.07;;
51228;SDS011;37304;52.216;6.874;2023-06-22T06:53:45;16.67;;;8.13;;
51228;SDS011;37304;52.216;6.874;2023-06-22T06:58:45;13.33;;;8.17;;
51228;SDS011;37304;52.216;6.874;2023-06-22T07:03:46;14.27;;;8.77;;
51228;SDS011;37304;52.216;6.874;2023-06-22T07:08:46;13.33;;;8.43;;
51228;SDS011;37304;52.216;6.874;2023-06-22T07:13:47;12.87;;;8.83;;
51228;SDS011;37304;52.216;6.874;2023-06-22T07:18:47;13.83;;;7.80;;
51228;SDS011;37304;52.216;6.874;2023-06-22T07:23:47;14.30;;;8.53;;
51228;SDS011;37304;52.216;6.874;2023-06-22T07:28:48;11.50;;;7.73;;
51228;SDS011;37304;52.216;6.874;2023-06-22T07:33:48;13.10;;;7.20;;
51228;SDS011;37304;52.216;6.874;2023-06-22T07:38:48;13.77;;;8.13;;
51228;SDS011;37304;52.216;6.874;2023-06-22T07:43:49;12.18;;;7.55;;
51228;SDS011;37304;52.216;6.874;2023-06-22T07:48:49;11.13;;;7.17;;
51228;SDS011;37304;52.216;6.874;2023-06-22T07:53:49;10.97;;;7.20;;
51228;SDS011;37304;52.216;6.874;2023-06-22T07:58:50;12.80;;;7.70;;
51228;SDS011;37304;52.216;6.874;2023-06-22T08:03:50;12.50;;;7.03;;
51228;SDS011;37304;52.216;6.874;2023-06-22T08:08:51;10.95;;;7.32;;
51228;SDS011;37304;52.216;6.874;2023-06-22T08:13:53;11.57;;;7.63;;
51228;SDS011;37304;52.216;6.874;2023-06-22T08:18:55;12.32;;;8.35;;
51228;SDS011;37304;52.216;6.874;2023-06-22T08:23:56;10.18;;;6.72;;
51228;SDS011;37304;52.216;6.874;2023-06-22T08:28:56;11.73;;;7.20;;
51228;SDS011;37304;52.216;6.874;2023-06-22T08:33:57;11.47;;;6.80;;
51228;SDS011;37304;52.216;6.874;2023-06-22T08:38:57;13.90;;;7.07;;
51228;SDS011;37304;52.216;6.874;2023-06-22T08:44:02;10.73;;;7.07;;
51228;SDS011;37304;52.216;6.874;2023-06-22T08:49:04;9.82;;;5.75;;
51228;SDS011;37304;52.216;6.874;2023-06-22T08:54:04;10.20;;;6.93;;
51228;SDS011;37304;52.216;6.874;2023-06-22T08:59:05;12.57;;;7.28;;
51228;SDS011;37304;52.216;6.874;2023-06-22T09:04:07;9.10;;;5.95;;
51228;SDS011;37304;52.216;6.874;2023-06-22T09:09:09;9.68;;;6.38;;
51228;SDS011;37304;52.216;6.874;2023-06-22T09:14:10;9.77;;;6.43;;
51228;SDS011;37304;52.216;6.874;2023-06-22T09:19:11;11.02;;;6.57;;
51228;SDS011;37304;52.216;6.874;2023-06-22T09:24:11;7.87;;;6.47;;
51228;SDS011;37304;52.216;6.874;2023-06-22T09:29:11;12.73;;;6.27;;
51228;SDS011;37304;52.216;6.874;2023-06-22T09:34:12;8.93;;;5.43;;
51228;SDS011;37304;52.216;6.874;2023-06-22T09:39:12;7.57;;;5.67;;
51228;SDS011;37304;52.216;6.874;2023-06-22T09:44:13;8.90;;;5.57;;
51228;SDS011;37304;52.216;6.874;2023-06-22T09:49:13;8.63;;;5.67;;
51228;SDS011;37304;52.216;6.874;2023-06-22T09:54:14;9.07;;;5.63;;
51228;SDS011;37304;52.216;6.874;2023-06-22T09:59:14;8.63;;;5.40;;
51228;SDS011;37304;52.216;6.874;2023-06-22T10:04:14;7.03;;;4.87;;
51228;SDS011;37304;52.216;6.874;2023-06-22T10:09:15;7.57;;;5.47;;
51228;SDS011;37304;52.216;6.874;2023-06-22T10:14:15;9.37;;;5.07;;
51228;SDS011;37304;52.216;6.874;2023-06-22T10:19:16;7.72;;;5.13;;
51228;SDS011;37304;52.216;6.874;2023-06-22T10:24:17;7.07;;;5.03;;
51228;SDS011;37304;52.216;6.874;2023-06-22T10:29:17;7.63;;;5.70;;
51228;SDS011;37304;52.216;6.874;2023-06-22T10:34:18;10.35;;;6.43;;
51228;SDS011;37304;52.216;6.874;2023-06-22T10:39:19;10.73;;;6.10;;
51228;SDS011;37304;52.216;6.874;2023-06-22T10:44:19;9.03;;;5.87;;
51228;SDS011;37304;52.216;6.874;2023-06-22T10:49:20;8.00;;;5.63;;
51228;SDS011;37304;52.216;6.874;2023-06-22T10:54:21;9.60;;;6.27;;
51228;SDS011;37304;52.216;6.874;2023-06-22T10:59:21;9.07;;;6.23;;
51228;SDS011;37304;52.216;6.874;2023-06-22T11:04:23;8.52;;;5.72;;
51228;SDS011;37304;52.216;6.874;2023-06-22T11:09:24;13.80;;;6.17;;
51228;SDS011;37304;52.216;6.874;2023-06-22T11:14:24;12.30;;;6.50;;
51228;SDS011;37304;52.216;6.874;2023-06-22T11:19:25;10.23;;;5.90;;
51228;SDS011;37304;52.216;6.874;2023-06-22T11:24:26;10.15;;;6.43;;
51228;SDS011;37304;52.216;6.874;2023-06-22T11:29:26;10.03;;;6.87;;
51228;SDS011;37304;52.216;6.874;2023-06-22T11:34:26;10.00;;;5.87;;
51228;SDS011;37304;52.216;6.874;2023-06-22T11:39:28;8.07;;;6.28;;
51228;SDS011;37304;52.216;6.874;2023-06-22T11:44:28;10.97;;;6.63;;
51228;SDS011;37304;52.216;6.874;2023-06-22T11:49:28;12.47;;;6.33;;
51228;SDS011;37304;52.216;6.874;2023-06-22T11:54:29;9.32;;;5.93;;
51228;SDS011;37304;52.216;6.874;2023-06-22T11:59:30;8.83;;;6.30;;
51228;SDS011;37304;52.216;6.874;2023-06-22T12:04:30;10.83;;;7.47;;
51228;SDS011;37304;52.216;6.874;2023-06-22T12:09:31;10.70;;;6.57;;
51228;SDS011;37304;52.216;6.874;2023-06-22T12:14:31;9.20;;;6.67;;
51228;SDS011;37304;52.216;6.874;2023-06-22T12:19:31;10.53;;;6.50;;
51228;SDS011;37304;52.216;6.874;2023-06-22T12:24:32;11.47;;;6.13;;
51228;SDS011;37304;52.216;6.874;2023-06-22T12:29:32;9.00;;;6.07;;
51228;SDS011;37304;52.216;6.874;2023-06-22T12:34:32;11.30;;;6.47;;
51228;SDS011;37304;52.216;6.874;2023-06-22T12:39:33;9.10;;;7.00;;
51228;SDS011;37304;52.216;6.874;2023-06-22T12:44:33;11.00;;;6.80;;
51228;SDS011;37304;52.216;6.874;2023-06-22T12:49:34;11.27;;;7.37;;
51228;SDS011;37304;52.216;6.874;2023-06-22T12:54:35;11.93;;;8.02;;
51228;SDS011;37304;52.216;6.874;2023-06-22T12:59:35;10.63;;;7.23;;
51228;SDS011;37304;52.216;6.874;2023-06-22T13:04:36;12.17;;;6.80;;
51228;SDS011;37304;52.216;6.874;2023-06-22T13:09:36;11.13;;;7.50;;
51228;SDS011;37304;52.216;6.874;2023-06-22T13:14:37;13.98;;;7.60;;
51228;SDS011;37304;52.216;6.874;2023-06-22T13:19:37;13.70;;;9.27;;
51228;SDS011;37304;52.216;6.874;2023-06-22T13:24:37;14.67;;;8.83;;
51228;SDS011;37304;52.216;6.874;2023-06-22T13:29:38;12.03;;;8.67;;
51228;SDS011;37304;52.216;6.874;2023-06-22T13:34:38;17.23;;;10.37;;
51228;SDS011;37304;52.216;6.874;2023-06-22T13:39:38;23.33;;;11.10;;
51228;SDS011;37304;52.216;6.874;2023-06-22T13:44:39;17.43;;;11.53;;
51228;SDS011;37304;52.216;6.874;2023-06-22T13:49:39;20.38;;;11.60;;
51228;SDS011;37304;52.216;6.874;2023-06-22T13:54:40;19.93;;;12.17;;
51228;SDS011;37304;52.216;6.874;2023-06-22T13:59:40;21.23;;;12.33;;
51228;SDS011;37304;52.216;6.874;2023-06-22T14:04:41;18.97;;;12.37;;
51228;SDS011;37304;52.216;6.874;2023-06-22T14:09:41;21.47;;;12.97;;
51228;SDS011;37304;52.216;6.874;2023-06-22T14:14:42;22.10;;;13.30;;
51228;SDS011;37304;52.216;6.874;2023-06-22T14:19:42;24.20;;;14.23;;
51228;SDS011;37304;52.216;6.874;2023-06-22T14:24:42;18.43;;;12.23;;
51228;SDS011;37304;52.216;6.874;2023-06-22T14:29:43;19.83;;;13.33;;
51228;SDS011;37304;52.216;6.874;2023-06-22T14:34:43;18.57;;;13.20;;
51228;SDS011;37304;52.216;6.874;2023-06-22T14:39:44;17.83;;;12.73;;
51228;SDS011;37304;52.216;6.874;2023-06-22T14:44:44;19.73;;;13.43;;
51228;SDS011;37304;52.216;6.874;2023-06-22T14:49:45;16.90;;;11.80;;
51228;SDS011;37304;52.216;6.874;2023-06-22T14:54:45;17.40;;;11.33;;
51228;SDS011;37304;52.216;6.874;2023-06-22T14:59:46;19.87;;;12.27;;
51228;SDS011;37304;52.216;6.874;2023-06-22T15:04:48;17.23;;;12.05;;
51228;SDS011;37304;52.216;6.874;2023-06-22T15:09:49;16.38;;;11.98;;
51228;SDS011;37304;52.216;6.874;2023-06-22T15:14:49;17.70;;;11.87;;
51228;SDS011;37304;52.216;6.874;2023-06-22T15:19:50;19.23;;;11.70;;
51228;SDS011;37304;52.216;6.874;2023-06-22T15:24:50;19.53;;;13.43;;
51228;SDS011;37304;52.216;6.874;2023-06-22T15:29:53;16.17;;;11.48;;
51228;SDS011;37304;52.216;6.874;2023-06-22T15:34:53;18.87;;;12.10;;
51228;SDS011;37304;52.216;6.874;2023-06-22T15:39:56;16.88;;;11.27;;
51228;SDS011;37304;52.216;6.874;2023-06-22T15:44:58;19.10;;;12.35;;
51228;SDS011;37304;52.216;6.874;2023-06-22T15:49:59;18.63;;;11.43;;
51228;SDS011;37304;52.216;6.874;2023-06-22T15:54:59;16.70;;;11.10;;
51228;SDS011;37304;52.216;6.874;2023-06-22T16:00:00;15.45;;;10.82;;
51228;SDS011;37304;52.216;6.874;2023-06-22T16:05:01;15.75;;;10.85;;
51228;SDS011;37304;52.216;6.874;2023-06-22T16:10:03;16.67;;;11.32;;
51228;SDS011;37304;52.216;6.874;2023-06-22T16:15:05;16.88;;;10.68;;
51228;SDS011;37304;52.216;6.874;2023-06-22T16:20:06;18.83;;;11.07;;
51228;SDS011;37304;52.216;6.874;2023-06-22T16:25:07;18.13;;;11.05;;
51228;SDS011;37304;52.216;6.874;2023-06-22T16:30:08;18.47;;;10.60;;
51228;SDS011;37304;52.216;6.874;2023-06-22T16:35:09;17.33;;;11.77;;
51228;SDS011;37304;52.216;6.874;2023-06-22T16:40:09;17.97;;;11.17;;
51228;SDS011;37304;52.216;6.874;2023-06-22T16:45:10;17.10;;;10.77;;
51228;SDS011;37304;52.216;6.874;2023-06-22T16:50:13;17.48;;;11.73;;
51228;SDS011;37304;52.216;6.874;2023-06-22T16:55:14;19.67;;;11.90;;
51228;SDS011;37304;52.216;6.874;2023-06-22T17:00:14;19.15;;;11.90;;
51228;SDS011;37304;52.216;6.874;2023-06-22T17:05:15;22.05;;;13.15;;
51228;SDS011;37304;52.216;6.874;2023-06-22T17:10:20;22.80;;;13.52;;
51228;SDS011;37304;52.216;6.874;2023-06-22T17:15:22;26.30;;;15.13;;
51228;SDS011;37304;52.216;6.874;2023-06-22T17:20:22;29.88;;;15.50;;
51228;SDS011;37304;52.216;6.874;2023-06-22T17:25:23;27.37;;;15.23;;
51228;SDS011;37304;52.216;6.874;2023-06-22T17:30:24;27.95;;;15.15;;
51228;SDS011;37304;52.216;6.874;2023-06-22T17:35:24;31.25;;;16.90;;
51228;SDS011;37304;52.216;6.874;2023-06-22T17:40:26;27.85;;;16.27;;
51228;SDS011;37304;52.216;6.874;2023-06-22T17:45:26;30.30;;;16.83;;
51228;SDS011;37304;52.216;6.874;2023-06-22T17:50:28;28.38;;;16.35;;
51228;SDS011;37304;52.216;6.874;2023-06-22T17:55:29;31.27;;;16.02;;
51228;SDS011;37304;52.216;6.874;2023-06-22T18:00:29;25.23;;;15.15;;
51228;SDS011;37304;52.216;6.874;2023-06-22T18:05:31;25.73;;;13.05;;
51228;SDS011;37304;52.216;6.874;2023-06-22T18:10:35;23.42;;;12.98;;
51228;SDS011;37304;52.216;6.874;2023-06-22T18:15:36;22.70;;;11.02;;
51228;SDS011;37304;52.216;6.874;2023-06-22T18:20:38;15.38;;;9.85;;
51228;SDS011;37304;52.216;6.874;2023-06-22T18:25:40;17.83;;;10.55;;
51228;SDS011;37304;52.216;6.874;2023-06-22T18:30:45;18.73;;;10.35;;
51228;SDS011;37304;52.216;6.874;2023-06-22T18:35:47;15.35;;;8.55;;
51228;SDS011;37304;52.216;6.874;2023-06-22T18:40:51;14.82;;;8.80;;
51228;SDS011;37304;52.216;6.874;2023-06-22T18:45:52;15.02;;;8.20;;
51228;SDS011;37304;52.216;6.874;2023-06-22T18:50:53;13.48;;;8.05;;
51228;SDS011;37304;52.216;6.874;2023-06-22T18:56:11;11.57;;;6.72;;
51228;SDS011;37304;52.216;6.874;2023-06-22T19:01:16;13.82;;;6.75;;
51228;SDS011;37304;52.216;6.874;2023-06-22T19:12:15;11.85;;;7.07;;
51228;SDS011;37304;52.216;6.874;2023-06-22T19:17:19;12.98;;;6.85;;
51228;SDS011;37304;52.216;6.874;2023-06-22T19:22:23;10.20;;;6.30;;
51228;SDS011;37304;52.216;6.874;2023-06-22T19:27:43;12.05;;;6.28;;
51228;SDS011;37304;52.216;6.874;2023-06-22T19:32:44;10.57;;;6.80;;
51228;SDS011;37304;52.216;6.874;2023-06-22T19:37:46;9.15;;;5.22;;
51228;SDS011;37304;52.216;6.874;2023-06-22T19:42:47;10.70;;;6.45;;
51228;SDS011;37304;52.216;6.874;2023-06-22T19:47:47;11.40;;;6.10;;
51228;SDS011;37304;52.216;6.874;2023-06-22T19:52:53;11.85;;;5.70;;
51228;SDS011;37304;52.216;6.874;2023-06-22T19:57:53;11.77;;;6.50;;
51228;SDS011;37304;52.216;6.874;2023-06-22T20:02:54;10.03;;;5.67;;
51228;SDS011;37304;52.216;6.874;2023-06-22T20:07:54;12.95;;;6.50;;
51228;SDS011;37304;52.216;6.874;2023-06-22T20:12:55;11.17;;;5.90;;
51228;SDS011;37304;52.216;6.874;2023-06-22T20:17:56;13.50;;;7.43;;
51228;SDS011;37304;52.216;6.874;2023-06-22T20:23:01;13.23;;;6.78;;
51228;SDS011;37304;52.216;6.874;2023-06-22T20:28:04;13.13;;;7.20;;
51228;SDS011;37304;52.216;6.874;2023-06-22T20:33:14;14.52;;;6.10;;
51228;SDS011;37304;52.216;6.874;2023-06-22T20:38:16;13.82;;;7.40;;
51228;SDS011;37304;52.216;6.874;2023-06-22T20:43:16;18.20;;;7.37;;
51228;SDS011;37304;52.216;6.874;2023-06-22T20:48:16;12.00;;;6.47;;
51228;SDS011;37304;52.216;6.874;2023-06-22T20:53:17;10.30;;;6.70;;
51228;SDS011;37304;52.216;6.874;2023-06-22T20:58:17;12.77;;;6.85;;
51228;SDS011;37304;52.216;6.874;2023-06-22T21:03:18;15.63;;;5.50;;
51228;SDS011;37304;52.216;6.874;2023-06-22T21:08:18;11.13;;;5.83;;
51228;SDS011;37304;52.216;6.874;2023-06-22T21:13:18;13.40;;;7.10;;
51228;SDS011;37304;52.216;6.874;2023-06-22T21:18:21;11.95;;;6.75;;
51228;SDS011;37304;52.216;6.874;2023-06-22T21:23:21;14.27;;;6.13;;
51228;SDS011;37304;52.216;6.874;2023-06-22T21:28:21;12.17;;;6.40;;
51228;SDS011;37304;52.216;6.874;2023-06-22T21:33:22;11.40;;;6.43;;
51228;SDS011;37304;52.216;6.874;2023-06-22T21:38:23;11.82;;;5.70;;
51228;SDS011;37304;52.216;6.874;2023-06-22T21:43:23;10.73;;;5.33;;
51228;SDS011;37304;52.216;6.874;2023-06-22T21:48:23;11.80;;;5.70;;
51228;SDS011;37304;52.216;6.874;2023-06-22T21:53:24;12.93;;;5.80;;
51228;SDS011;37304;52.216;6.874;2023-06-22T21:58:30;9.00;;;5.13;;
51228;SDS011;37304;52.216;6.874;2023-06-22T22:03:30;11.20;;;5.72;;
51228;SDS011;37304;52.216;6.874;2023-06-22T22:08:30;14.83;;;5.37;;
51228;SDS011;37304;52.216;6.874;2023-06-22T22:13:31;12.87;;;4.90;;
51228;SDS011;37304;52.216;6.874;2023-06-22T22:18:32;11.50;;;5.03;;
51228;SDS011;37304;52.216;6.874;2023-06-22T22:23:33;10.13;;;5.03;;
51228;SDS011;37304;52.216;6.874;2023-06-22T22:28:33;9.65;;;4.63;;
51228;SDS011;37304;52.216;6.874;2023-06-22T22:33:34;9.00;;;4.90;;
51228;SDS011;37304;52.216;6.874;2023-06-22T22:38:36;8.90;;;4.70;;
51228;SDS011;37304;52.216;6.874;2023-06-22T22:43:40;9.65;;;5.00;;
51228;SDS011;37304;52.216;6.874;2023-06-22T22:48:40;8.30;;;4.33;;
51228;SDS011;37304;52.216;6.874;2023-06-22T22:53:41;10.10;;;4.80;;
51228;SDS011;37304;52.216;6.874;2023-06-22T22:58:42;8.18;;;4.57;;
51228;SDS011;37304;52.216;6.874;2023-06-22T23:03:42;13.73;;;5.13;;
51228;SDS011;37304;52.216;6.874;2023-06-22T23:08:43;8.83;;;5.00;;
51228;SDS011;37304;52.216;6.874;2023-06-22T23:13:43;9.53;;;4.77;;
51228;SDS011;37304;52.216;6.874;2023-06-22T23:18:44;8.37;;;4.57;;
51228;SDS011;37304;52.216;6.874;2023-06-22T23:23:44;8.30;;;4.85;;
51228;SDS011;37304;52.216;6.874;2023-06-22T23:28:44;12.03;;;5.27;;
51228;SDS011;37304;52.216;6.874;2023-06-22T23:33:45;8.97;;;4.73;;
51228;SDS011;37304;52.216;6.874;2023-06-22T23:38:45;8.17;;;4.70;;
51228;SDS011;37304;52.216;6.874;2023-06-22T23:43:46;10.20;;;5.83;;
51228;SDS011;37304;52.216;6.874;2023-06-22T23:48:46;14.30;;;5.43;;
51228;SDS011;37304;52.216;6.874;2023-06-22T23:53:47;15.45;;;6.40;;
51228;SDS011;37304;52.216;6.874;2023-06-22T23:58:51;12.17;;;6.17;;
